Time;durP1;ratioP1;P1;durP2;ratioP2;P2;SDS_P1;SDS_P2;PMS_P1;PMS_P2;Temp;Humidity;BMP_temperature;BMP_pressure;BME280_temperature;BME280_humidity;BME280_pressure;Samples;Min_cycle;Max_cycle;Signal;HPM_P1;HPM_P2
2022/02/15 00:01:20;;;;;;;1.73;0.77;;;14.70;52.10;;;;;;5046762;28;20281;-42
2022/02/15 00:03:46;;;;;;;1.20;0.87;;;14.70;51.90;;;;;;5046581;28;20199;-43
2022/02/15 00:06:12;;;;;;;1.10;1.00;;;14.70;52.10;;;;;;5044488;28;20221;-42
2022/02/15 00:08:38;;;;;;;1.00;0.77;;;14.60;51.90;;;;;;5049498;28;20204;-42
2022/02/15 00:11:03;;;;;;;0.80;0.80;;;14.60;52.10;;;;;;5052890;28;20192;-42
2022/02/15 00:13:29;;;;;;;0.80;0.80;;;14.50;52.00;;;;;;5051866;28;20521;-42
2022/02/15 00:15:54;;;;;;;0.93;0.90;;;14.50;51.90;;;;;;5050663;28;20632;-42
2022/02/15 00:18:20;;;;;;;1.23;0.90;;;14.60;52.00;;;;;;5039735;28;20204;-42
2022/02/15 00:20:46;;;;;;;0.93;0.77;;;14.60;51.90;;;;;;5045196;28;20658;-42
2022/02/15 00:23:11;;;;;;;1.23;0.90;;;14.70;52.00;;;;;;5044970;28;20236;-42
2022/02/15 00:25:38;;;;;;;1.57;0.80;;;14.60;51.50;;;;;;5044236;28;20224;-42
2022/02/15 00:28:04;;;;;;;1.70;1.13;;;14.60;51.40;;;;;;5049239;28;20205;-42
2022/02/15 00:30:29;;;;;;;1.50;1.40;;;14.70;51.50;;;;;;5050122;28;20470;-42
2022/02/15 00:32:55;;;;;;;1.33;1.10;;;14.80;51.70;;;;;;5041611;28;20564;-42
2022/02/15 00:35:21;;;;;;;2.33;1.10;;;14.90;51.80;;;;;;5047975;28;20197;-42
2022/02/15 00:37:46;;;;;;;1.47;0.90;;;15.00;51.60;;;;;;5043024;28;20771;-42
2022/02/15 00:40:12;;;;;;;1.13;1.07;;;15.00;51.40;;;;;;5043164;28;20549;-42
2022/02/15 00:42:39;;;;;;;1.20;1.00;;;15.10;51.30;;;;;;5042377;28;20656;-42
2022/02/15 00:45:06;;;;;;;1.10;0.97;;;15.10;51.10;;;;;;5045083;28;20458;-43
2022/02/15 00:47:32;;;;;;;1.20;1.20;;;15.20;51.10;;;;;;5042579;28;20517;-42
2022/02/15 00:49:58;;;;;;;1.50;1.07;;;15.20;51.00;;;;;;5042909;28;20527;-42
2022/02/15 00:52:24;;;;;;;1.40;1.30;;;15.20;50.90;;;;;;5048796;28;20201;-42
2022/02/15 00:54:49;;;;;;;2.10;1.20;;;15.30;50.80;;;;;;5047704;28;20188;-42
2022/02/15 00:57:16;;;;;;;1.50;1.20;;;15.40;50.70;;;;;;5042387;28;20204;-42
2022/02/15 00:59:42;;;;;;;1.43;1.33;;;15.40;50.80;;;;;;5038662;28;20215;-42
2022/02/15 01:02:08;;;;;;;1.63;1.30;;;15.40;50.70;;;;;;5040357;28;20435;-44
2022/02/15 01:04:33;;;;;;;1.80;1.60;;;15.30;50.50;;;;;;5039625;28;20957;-42
2022/02/15 01:06:59;;;;;;;3.63;1.40;;;15.30;50.50;;;;;;5046751;28;20227;-42
2022/02/15 01:09:24;;;;;;;1.33;1.00;;;15.30;50.20;;;;;;5047981;28;20694;-42
2022/02/15 01:11:50;;;;;;;1.33;1.23;;;15.30;50.20;;;;;;5042886;28;20215;-42
2022/02/15 01:14:18;;;;;;;1.43;1.30;;;15.40;50.30;;;;;;5047295;28;20205;-42
2022/02/15 01:16:44;;;;;;;1.27;0.90;;;15.30;50.10;;;;;;5043557;28;20196;-42
2022/02/15 01:19:10;;;;;;;1.70;1.33;;;15.40;50.20;;;;;;5050132;28;20445;-42
2022/02/15 01:21:35;;;;;;;1.63;1.47;;;15.40;50.20;;;;;;5047448;28;20440;-43
2022/02/15 01:24:01;;;;;;;2.43;1.70;;;15.30;50.30;;;;;;5049514;28;20743;-43
2022/02/15 01:26:26;;;;;;;1.70;1.50;;;15.30;50.10;;;;;;5045414;28;20717;-42
2022/02/15 01:28:52;;;;;;;2.40;1.10;;;15.00;50.00;;;;;;5046582;28;20196;-43
2022/02/15 01:31:18;;;;;;;1.80;1.70;;;14.90;50.40;;;;;;5047334;28;20307;-42
2022/02/15 01:33:43;;;;;;;1.63;1.50;;;14.80;50.70;;;;;;5047908;28;20254;-42
2022/02/15 01:36:09;;;;;;;1.73;1.60;;;14.70;51.20;;;;;;5047736;28;20242;-42
2022/02/15 01:38:34;;;;;;;2.00;1.70;;;14.60;51.50;;;;;;5049779;28;20203;-42
2022/02/15 01:41:01;;;;;;;1.93;1.37;;;14.50;51.50;;;;;;5053244;28;20283;-42
2022/02/15 01:43:27;;;;;;;2.77;1.50;;;14.40;51.90;;;;;;5046860;28;20189;-42
2022/02/15 01:45:52;;;;;;;1.70;1.60;;;14.30;51.90;;;;;;5043321;28;21319;-43
2022/02/15 01:48:18;;;;;;;1.53;1.37;;;14.20;52.00;;;;;;5041743;28;20189;-42
2022/02/15 01:50:43;;;;;;;2.20;1.60;;;14.10;52.20;;;;;;5039842;28;20220;-42
2022/02/15 01:53:09;;;;;;;2.50;1.70;;;14.10;52.20;;;;;;5045086;28;20271;-42
2022/02/15 01:55:35;;;;;;;1.53;1.43;;;14.00;52.40;;;;;;5043266;28;20220;-42
2022/02/15 01:58:00;;;;;;;1.80;1.50;;;14.00;52.30;;;;;;5041988;28;20199;-42
2022/02/15 02:00:26;;;;;;;1.50;1.37;;;14.00;52.40;;;;;;5044478;28;20196;-42
2022/02/15 02:02:52;;;;;;;1.40;1.30;;;14.00;52.50;;;;;;5045074;28;20193;-43
2022/02/15 02:08:02;;;;;;;3.87;1.57;;;13.90;52.30;;;;;;5038077;28;20243;-42
2022/02/15 02:10:28;;;;;;;1.33;1.23;;;13.80;52.30;;;;;;5040963;28;20424;-43
2022/02/15 02:12:54;;;;;;;2.13;1.30;;;13.80;52.40;;;;;;5036068;28;20437;-42
2022/02/15 02:15:25;;;;;;;2.70;1.80;;;13.70;52.40;;;;;;5047544;28;20719;-42
2022/02/15 02:17:52;;;;;;;3.13;1.13;;;13.60;52.20;;;;;;5043302;28;20199;-42
2022/02/15 02:20:18;;;;;;;1.23;1.13;;;13.60;52.40;;;;;;5044878;28;20431;-42
2022/02/15 02:22:44;;;;;;;1.50;1.40;;;13.60;52.50;;;;;;5046941;28;20438;-42
2022/02/15 02:25:15;;;;;;;1.20;1.10;;;13.60;52.30;;;;;;5046661;28;20462;-42
2022/02/15 02:27:41;;;;;;;1.23;1.13;;;13.60;52.50;;;;;;5034962;28;20431;-42
2022/02/15 02:30:08;;;;;;;1.27;1.17;;;13.60;52.80;;;;;;5044737;28;20507;-42
2022/02/15 02:32:34;;;;;;;3.13;1.30;;;13.60;52.80;;;;;;5043967;28;20942;-42
2022/02/15 02:35:01;;;;;;;2.20;1.40;;;13.60;52.60;;;;;;5039601;28;20427;-42
2022/02/15 02:37:28;;;;;;;6.60;1.40;;;13.50;52.50;;;;;;5045806;28;20991;-42
2022/02/15 02:39:54;;;;;;;1.97;1.20;;;13.30;52.50;;;;;;5046336;28;20470;-42
2022/02/15 02:42:26;;;;;;;1.00;0.90;;;13.00;53.20;;;;;;5031673;28;20436;-42
2022/02/15 02:44:53;;;;;;;1.83;1.37;;;12.90;53.60;;;;;;5045778;28;20442;-42
2022/02/15 02:47:19;;;;;;;4.00;1.67;;;13.00;53.60;;;;;;5049425;28;20477;-42
2022/02/15 02:49:45;;;;;;;1.70;1.03;;;12.90;53.60;;;;;;5049627;28;20431;-42
2022/02/15 02:52:10;;;;;;;1.90;1.20;;;12.80;54.00;;;;;;5042992;28;20185;-42
2022/02/15 02:54:36;;;;;;;1.40;1.00;;;12.90;54.10;;;;;;5045295;28;20189;-42
2022/02/15 02:57:02;;;;;;;1.73;1.20;;;12.90;53.90;;;;;;5044717;28;20546;-42
2022/02/15 02:59:29;;;;;;;5.33;1.30;;;13.10;53.80;;;;;;5044064;28;20193;-42
2022/02/15 03:01:55;;;;;;;2.33;1.13;;;13.10;53.60;;;;;;5041511;28;20471;-42
2022/02/15 03:04:20;;;;;;;1.37;1.23;;;13.10;53.30;;;;;;5038329;28;20448;-42
2022/02/15 03:06:47;;;;;;;1.00;0.87;;;13.10;53.20;;;;;;5041405;28;20225;-42
2022/02/15 03:09:12;;;;;;;1.83;0.90;;;12.90;53.50;;;;;;5041613;28;20199;-42
2022/02/15 03:11:38;;;;;;;2.60;1.33;;;12.90;53.70;;;;;;5042137;28;20432;-42
2022/02/15 03:14:04;;;;;;;1.17;1.00;;;12.80;53.60;;;;;;5042099;28;20189;-42
2022/02/15 03:16:30;;;;;;;2.47;1.20;;;12.70;54.00;;;;;;5049409;28;20276;-42
2022/02/15 03:18:56;;;;;;;2.83;1.03;;;12.80;54.00;;;;;;5042437;28;20575;-42
2022/02/15 03:21:21;;;;;;;1.63;1.23;;;13.00;53.70;;;;;;5044139;28;20224;-42
2022/02/15 03:23:48;;;;;;;2.17;1.20;;;13.10;53.60;;;;;;5034193;28;20205;-42
2022/02/15 03:26:14;;;;;;;1.37;1.27;;;13.10;53.30;;;;;;5046259;28;20590;-43
2022/02/15 03:28:39;;;;;;;1.40;1.23;;;13.10;53.20;;;;;;5042307;28;20431;-42
2022/02/15 03:31:05;;;;;;;1.40;1.00;;;13.20;53.20;;;;;;5047424;28;20462;-42
2022/02/15 03:33:32;;;;;;;1.90;1.20;;;13.20;53.00;;;;;;5044285;28;20199;-42
2022/02/15 03:35:57;;;;;;;2.50;1.27;;;13.30;53.00;;;;;;5040208;28;20572;-42
2022/02/15 03:38:23;;;;;;;1.43;1.03;;;13.20;52.60;;;;;;5044027;28;20447;-42
2022/02/15 03:43:33;;;;;;;1.30;1.10;;;13.00;53.10;;;;;;5045597;28;20573;-42
2022/02/15 03:45:59;;;;;;;2.60;1.10;;;13.10;53.30;;;;;;5043119;28;20956;-42
2022/02/15 03:48:24;;;;;;;1.93;1.20;;;13.00;53.10;;;;;;5041270;28;20204;-42
2022/02/15 03:50:50;;;;;;;1.77;1.13;;;12.90;53.30;;;;;;5049858;28;20223;-42
2022/02/15 03:53:17;;;;;;;2.40;1.23;;;12.90;53.50;;;;;;5051438;28;20196;-42
2022/02/15 03:55:44;;;;;;;2.20;1.27;;;12.90;53.50;;;;;;5039144;28;20204;-42
2022/02/15 03:58:10;;;;;;;2.60;1.10;;;12.80;53.50;;;;;;5039304;28;20424;-42
2022/02/15 04:00:37;;;;;;;5.03;1.30;;;12.90;53.50;;;;;;5038970;28;20444;-42
2022/02/15 04:03:02;;;;;;;2.67;1.53;;;13.00;53.20;;;;;;5037089;28;20432;-42
2022/02/15 04:05:28;;;;;;;1.50;1.40;;;13.10;53.00;;;;;;5052393;28;20605;-42
2022/02/15 04:07:54;;;;;;;2.60;1.13;;;13.10;53.00;;;;;;5049402;28;20614;-42
2022/02/15 04:10:19;;;;;;;2.63;1.67;;;13.10;53.00;;;;;;5045248;28;20269;-42
2022/02/15 04:12:45;;;;;;;1.43;1.20;;;13.00;52.70;;;;;;5033296;28;20216;-42
2022/02/15 04:15:12;;;;;;;1.63;1.43;;;12.90;53.00;;;;;;5045765;28;20293;-42
2022/02/15 04:17:37;;;;;;;2.10;1.50;;;12.80;53.30;;;;;;5046912;28;20467;-42
2022/02/15 04:20:04;;;;;;;4.03;1.50;;;12.70;53.40;;;;;;5046918;28;20497;-42
2022/02/15 04:22:30;;;;;;;1.57;1.30;;;12.50;53.80;;;;;;5049165;28;20284;-42
2022/02/15 04:24:55;;;;;;;1.43;1.30;;;12.60;53.90;;;;;;5049933;28;20530;-42
2022/02/15 04:27:22;;;;;;;1.67;1.47;;;12.70;53.60;;;;;;5044920;28;20198;-41
2022/02/15 04:29:48;;;;;;;4.90;1.70;;;12.80;53.30;;;;;;5049525;28;20315;-41
2022/02/15 04:32:14;;;;;;;1.67;1.10;;;13.00;53.10;;;;;;5041635;28;20428;-43
2022/02/15 04:34:41;;;;;;;2.10;1.40;;;12.90;53.00;;;;;;5044245;28;20497;-42
2022/02/15 04:37:07;;;;;;;1.60;1.50;;;13.00;53.00;;;;;;5049774;28;20510;-42
2022/02/15 04:39:32;;;;;;;1.87;1.43;;;13.10;52.80;;;;;;5045518;28;20521;-42
2022/02/15 04:41:58;;;;;;;1.80;1.53;;;13.20;52.90;;;;;;5043750;28;20739;-42
2022/02/15 04:44:23;;;;;;;3.10;1.43;;;13.30;52.80;;;;;;5040783;28;20216;-41
2022/02/15 04:46:49;;;;;;;3.67;1.53;;;13.20;52.90;;;;;;5043062;28;20239;-42
2022/02/15 04:49:15;;;;;;;2.07;1.17;;;13.20;52.90;;;;;;5048235;28;20188;-42
2022/02/15 04:51:41;;;;;;;2.40;1.50;;;13.30;52.70;;;;;;5045895;28;20197;-42
2022/02/15 04:54:07;;;;;;;2.10;1.50;;;13.30;52.40;;;;;;5042933;28;20416;-42
2022/02/15 04:56:32;;;;;;;2.33;1.50;;;13.30;52.50;;;;;;5046337;28;20197;-42
2022/02/15 04:58:58;;;;;;;1.70;1.40;;;13.30;52.30;;;;;;5043825;28;20193;-42
2022/02/15 05:01:23;;;;;;;2.90;1.50;;;13.30;52.10;;;;;;5048017;28;20198;-42
2022/02/15 05:03:49;;;;;;;1.57;1.37;;;13.30;52.40;;;;;;5035958;28;20236;-42
2022/02/15 05:06:14;;;;;;;3.93;1.40;;;13.20;52.20;;;;;;5048432;28;20710;-42
2022/02/15 05:08:40;;;;;;;2.10;1.27;;;13.30;52.40;;;;;;5040860;28;20247;-42
2022/02/15 05:11:06;;;;;;;2.63;1.17;;;13.30;52.50;;;;;;5044477;28;20551;-42
2022/02/15 05:13:32;;;;;;;1.33;1.17;;;13.30;52.70;;;;;;5041778;28;20194;-42
2022/02/15 05:15:57;;;;;;;2.40;2.20;;;13.30;52.60;;;;;;5041612;28;20965;-42
2022/02/15 05:18:23;;;;;;;2.20;1.47;;;13.30;52.40;;;;;;5045743;28;20336;-42
2022/02/15 05:20:49;;;;;;;2.33;1.47;;;13.30;52.20;;;;;;5042988;28;20216;-42
2022/02/15 05:23:14;;;;;;;2.13;1.80;;;13.00;52.60;;;;;;5050213;28;20204;-42
2022/02/15 05:25:40;;;;;;;1.93;1.70;;;13.00;52.90;;;;;;5044788;28;20222;-42
2022/02/15 05:28:05;;;;;;;5.37;1.50;;;12.90;53.10;;;;;;5045668;28;20279;-42
2022/02/15 05:30:31;;;;;;;4.73;1.80;;;12.90;53.20;;;;;;5048550;28;20259;-42
2022/02/15 05:32:57;;;;;;;2.73;1.50;;;12.90;53.30;;;;;;5043793;28;20251;-42
2022/02/15 05:35:22;;;;;;;2.83;1.90;;;12.90;53.50;;;;;;5043175;28;20197;-41
2022/02/15 05:37:48;;;;;;;2.50;1.93;;;13.00;53.50;;;;;;5051406;28;20322;-42
2022/02/15 05:40:15;;;;;;;2.10;1.60;;;13.00;53.40;;;;;;5044687;28;20308;-42
2022/02/15 05:42:41;;;;;;;2.90;2.20;;;13.00;53.20;;;;;;5038880;28;20440;-42
2022/02/15 05:45:07;;;;;;;5.90;2.07;;;13.10;53.20;;;;;;5043692;28;20534;-42
2022/02/15 05:47:33;;;;;;;3.97;1.80;;;13.00;53.00;;;;;;5045785;28;20475;-42
2022/02/15 05:52:42;;;;;;;1.90;1.53;;;13.00;53.00;;;;;;5044223;28;20200;-42
2022/02/15 05:55:09;;;;;;;2.00;1.80;;;13.00;53.10;;;;;;5040429;28;20542;-42
2022/02/15 05:57:34;;;;;;;7.20;2.07;;;13.00;53.00;;;;;;5046864;28;20196;-42
2022/02/15 06:00:00;;;;;;;2.70;2.00;;;13.10;52.90;;;;;;5032162;28;20840;-42
2022/02/15 06:02:26;;;;;;;4.00;2.60;;;13.10;52.90;;;;;;5038901;28;20200;-42
2022/02/15 06:04:52;;;;;;;4.27;2.37;;;13.10;53.00;;;;;;5044795;28;20220;-42
2022/02/15 06:07:18;;;;;;;3.17;2.40;;;13.00;52.80;;;;;;5043804;28;20228;-42
2022/02/15 06:09:44;;;;;;;3.30;2.20;;;13.00;53.10;;;;;;5039450;28;20497;-42
2022/02/15 06:12:10;;;;;;;2.63;2.30;;;13.00;53.10;;;;;;5038608;28;20530;-43
2022/02/15 06:14:36;;;;;;;3.40;2.70;;;13.20;53.10;;;;;;5042718;28;20608;-41
2022/02/15 06:17:01;;;;;;;5.60;2.77;;;13.20;53.00;;;;;;5044400;28;20442;-46
2022/02/15 06:19:27;;;;;;;9.90;3.80;;;13.20;52.90;;;;;;5045484;28;20276;-42
2022/02/15 06:21:53;;;;;;;2.07;1.87;;;13.20;53.00;;;;;;5044453;28;20196;-42
2022/02/15 06:24:20;;;;;;;2.10;1.50;;;13.10;53.10;;;;;;5041616;28;20555;-42
2022/02/15 06:26:46;;;;;;;2.37;1.80;;;13.00;53.20;;;;;;5047380;28;20254;-41
2022/02/15 06:29:12;;;;;;;3.40;1.93;;;12.90;53.60;;;;;;5043838;28;20435;-42
2022/02/15 06:31:38;;;;;;;3.67;2.33;;;12.90;53.70;;;;;;5047077;28;20471;-41
2022/02/15 06:34:07;;;;;;;2.43;1.50;;;12.80;53.60;;;;;;5033044;28;20208;-41
2022/02/15 06:36:33;;;;;;;1.90;1.70;;;13.00;53.90;;;;;;5040092;28;20272;-42
2022/02/15 06:38:59;;;;;;;4.10;1.87;;;12.90;53.60;;;;;;5041907;28;20547;-41
2022/02/15 06:41:25;;;;;;;2.80;1.60;;;12.90;53.60;;;;;;5045633;28;20197;-41
2022/02/15 06:43:51;;;;;;;2.60;1.70;;;13.00;53.50;;;;;;5042939;28;20983;-42
2022/02/15 06:46:17;;;;;;;2.07;1.67;;;12.90;53.60;;;;;;5042357;28;20232;-41
2022/02/15 06:48:42;;;;;;;2.00;1.83;;;12.80;53.50;;;;;;5036865;28;20795;-41
2022/02/15 06:51:08;;;;;;;4.03;1.80;;;12.70;53.70;;;;;;5045190;28;20211;-41
2022/02/15 06:53:34;;;;;;;2.63;1.73;;;12.70;53.90;;;;;;5044765;28;20189;-41
2022/02/15 06:56:00;;;;;;;3.13;1.47;;;12.70;53.90;;;;;;5037843;28;20260;-41
2022/02/15 06:58:26;;;;;;;2.50;1.73;;;12.70;53.90;;;;;;5049449;28;20200;-42
2022/02/15 07:00:51;;;;;;;1.83;1.70;;;12.80;53.70;;;;;;5051437;28;20422;-41
2022/02/15 07:03:17;;;;;;;2.10;1.90;;;13.00;53.50;;;;;;5038331;28;20526;-41
2022/02/15 07:05:42;;;;;;;2.43;2.03;;;13.00;53.30;;;;;;5052647;28;20220;-42
2022/02/15 07:08:08;;;;;;;1.90;1.70;;;13.00;53.40;;;;;;5045387;28;20197;-41
2022/02/15 07:10:35;;;;;;;2.80;1.60;;;13.00;53.30;;;;;;5049366;28;20196;-41
2022/02/15 07:13:02;;;;;;;2.70;1.93;;;12.80;53.40;;;;;;5050442;28;20200;-41
2022/02/15 07:15:27;;;;;;;3.43;1.80;;;12.60;54.00;;;;;;5048571;28;20431;-41
2022/02/15 07:17:53;;;;;;;2.50;1.80;;;12.50;54.40;;;;;;5045688;28;20959;-41
2022/02/15 07:20:18;;;;;;;2.60;2.23;;;12.40;54.70;;;;;;5052330;28;20189;-41
2022/02/15 07:22:44;;;;;;;1.83;1.60;;;12.20;54.80;;;;;;5052453;28;20201;-41
2022/02/15 07:25:11;;;;;;;3.80;2.20;;;12.10;55.10;;;;;;5050917;28;20229;-41
2022/02/15 07:27:36;;;;;;;4.23;2.00;;;12.10;55.90;;;;;;5039015;28;20666;-41
2022/02/15 07:30:04;;;;;;;4.50;1.87;;;12.30;56.10;;;;;;5049762;28;20555;-41
2022/02/15 07:32:29;;;;;;;2.73;1.50;;;12.50;55.80;;;;;;5051236;28;20427;-41
2022/02/15 07:34:56;;;;;;;1.90;1.77;;;12.40;55.60;;;;;;5041957;28;20434;-41
2022/02/15 07:37:22;;;;;;;3.80;2.00;;;12.70;55.30;;;;;;5051705;28;20295;-41
2022/02/15 07:39:47;;;;;;;3.57;2.17;;;12.80;55.00;;;;;;5048437;28;20868;-42
2022/02/15 07:42:13;;;;;;;2.13;1.93;;;12.90;55.00;;;;;;5047640;28;20309;-42
2022/02/15 07:44:39;;;;;;;3.00;1.40;;;13.00;54.80;;;;;;5049820;28;20221;-41
2022/02/15 07:47:05;;;;;;;3.17;1.60;;;13.00;54.50;;;;;;5045134;28;20247;-41
2022/02/15 07:49:31;;;;;;;1.70;1.27;;;13.00;54.50;;;;;;5040850;28;20481;-42
2022/02/15 07:51:58;;;;;;;1.87;1.30;;;13.00;54.50;;;;;;5048573;28;20474;-41
2022/02/15 07:54:23;;;;;;;1.83;1.40;;;12.90;54.30;;;;;;5038552;28;20442;-41
2022/02/15 07:56:49;;;;;;;2.40;1.30;;;13.10;54.30;;;;;;5043119;28;20443;-42
2022/02/15 07:59:15;;;;;;;3.17;1.47;;;13.10;54.30;;;;;;5049930;28;20189;-42
2022/02/15 08:01:41;;;;;;;1.83;1.33;;;13.00;54.20;;;;;;5049696;28;20771;-41
2022/02/15 08:04:08;;;;;;;2.20;2.00;;;12.90;54.30;;;;;;5048018;28;20228;-41
2022/02/15 08:06:36;;;;;;;3.17;1.60;;;13.00;54.60;;;;;;5049109;28;20225;-41
2022/02/15 08:09:03;;;;;;;2.40;1.30;;;12.90;54.60;;;;;;5050759;28;20439;-41
2022/02/15 08:11:30;;;;;;;2.50;1.57;;;12.90;54.50;;;;;;5047426;28;20432;-42
2022/02/15 08:13:59;;;;;;;4.20;1.30;;;12.80;54.60;;;;;;5049592;28;20977;-41
2022/02/15 08:16:25;;;;;;;1.20;1.10;;;13.00;54.40;;;;;;5040043;28;20439;-41
2022/02/15 08:18:51;;;;;;;2.20;1.57;;;13.20;54.00;;;;;;5041650;28;20451;-41
2022/02/15 08:21:17;;;;;;;2.13;1.50;;;13.40;53.90;;;;;;5036933;28;20428;-42
2022/02/15 08:23:42;;;;;;;2.13;1.40;;;13.50;53.60;;;;;;5051879;28;20423;-41
2022/02/15 08:26:08;;;;;;;2.40;1.37;;;13.60;53.10;;;;;;5048552;28;20239;-41
2022/02/15 08:28:39;;;;;;;6.87;2.00;;;13.60;53.10;;;;;;5045292;28;20193;-42
2022/02/15 08:31:06;;;;;;;1.90;1.23;;;13.70;53.00;;;;;;5050206;28;20229;-41
2022/02/15 08:33:31;;;;;;;1.63;1.30;;;13.90;53.20;;;;;;5044073;28;20576;-41
2022/02/15 08:35:57;;;;;;;1.30;1.20;;;13.90;53.00;;;;;;5050400;28;20525;-42
2022/02/15 08:38:23;;;;;;;1.73;1.20;;;13.90;52.60;;;;;;5052142;28;20188;-42
2022/02/15 08:40:49;;;;;;;1.27;1.00;;;13.90;52.40;;;;;;5048570;28;20189;-41
2022/02/15 08:43:16;;;;;;;1.87;1.30;;;14.00;52.50;;;;;;5049871;28;20945;-41
2022/02/15 08:45:42;;;;;;;1.80;1.63;;;14.00;52.40;;;;;;5049704;28;20216;-42
2022/02/15 08:48:08;;;;;;;1.90;1.33;;;14.00;52.40;;;;;;5045892;28;20423;-41
2022/02/15 08:50:34;;;;;;;2.20;2.00;;;14.00;52.50;;;;;;5049819;28;20577;-41
2022/02/15 08:52:59;;;;;;;1.73;0.93;;;14.10;52.50;;;;;;5048789;28;20447;-41
2022/02/15 08:55:25;;;;;;;1.57;1.20;;;14.00;52.50;;;;;;5048362;28;20197;-41
2022/02/15 08:57:51;;;;;;;1.47;1.37;;;13.70;52.80;;;;;;5048929;28;20192;-41
2022/02/15 09:00:17;;;;;;;4.40;1.03;;;13.70;53.10;;;;;;5042705;28;20217;-41
2022/02/15 09:02:43;;;;;;;3.90;1.50;;;13.60;53.00;;;;;;5048435;28;20199;-41
2022/02/15 09:05:09;;;;;;;1.53;1.37;;;13.50;53.20;;;;;;5050651;28;20822;-41
2022/02/15 09:07:35;;;;;;;2.13;1.47;;;13.20;53.50;;;;;;5051361;28;20224;-41
2022/02/15 09:10:01;;;;;;;1.87;1.70;;;13.20;53.60;;;;;;5051550;28;20188;-42
2022/02/15 09:12:26;;;;;;;1.40;1.20;;;13.00;53.80;;;;;;5039863;28;21017;-41
2022/02/15 09:14:52;;;;;;;1.40;1.30;;;13.00;53.80;;;;;;5030599;28;20292;-41
2022/02/15 09:17:18;;;;;;;1.87;1.47;;;12.90;54.30;;;;;;5049576;28;20196;-42
2022/02/15 09:19:43;;;;;;;2.10;1.63;;;12.70;54.40;;;;;;5046604;28;20209;-41
2022/02/15 09:22:09;;;;;;;1.40;1.30;;;12.90;54.70;;;;;;5049755;28;20196;-41
2022/02/15 09:24:34;;;;;;;2.37;1.53;;;13.10;54.40;;;;;;5047398;28;20247;-41
2022/02/15 09:27:00;;;;;;;1.90;1.53;;;13.00;54.00;;;;;;5050000;28;20220;-41
2022/02/15 09:29:27;;;;;;;2.37;1.73;;;12.90;54.40;;;;;;5047340;28;20193;-42
2022/02/15 09:31:52;;;;;;;1.90;1.70;;;13.00;54.20;;;;;;5043604;28;20251;-41
2022/02/15 09:34:22;;;;;;;1.87;1.60;;;12.80;53.90;;;;;;5044450;28;20440;-41
2022/02/15 09:36:49;;;;;;;1.70;1.50;;;12.40;54.40;;;;;;5045679;28;20636;-42
2022/02/15 09:39:15;;;;;;;1.63;1.53;;;12.50;55.10;;;;;;5039551;28;20447;-41
2022/02/15 09:41:42;;;;;;;1.50;1.20;;;12.60;55.10;;;;;;5044031;28;20431;-41
2022/02/15 09:44:07;;;;;;;1.17;1.07;;;12.70;55.00;;;;;;5049177;28;20192;-41
2022/02/15 09:46:35;;;;;;;2.20;2.00;;;12.60;54.60;;;;;;5042125;28;20498;-42
2022/02/15 09:49:06;;;;;;;2.50;1.90;;;12.60;54.10;;;;;;5050501;28;20204;-41
2022/02/15 09:51:32;;;;;;;2.53;1.90;;;12.50;54.30;;;;;;5051096;28;20455;-41
2022/02/15 09:53:57;;;;;;;1.87;1.73;;;12.70;54.10;;;;;;5049280;28;20451;-41
2022/02/15 09:56:23;;;;;;;2.13;1.70;;;12.80;53.90;;;;;;5051691;28;20196;-41
2022/02/15 09:58:49;;;;;;;2.10;1.97;;;13.00;53.50;;;;;;5045127;28;20196;-41
2022/02/15 10:01:16;;;;;;;2.57;2.10;;;13.00;53.50;;;;;;5048838;28;20548;-41
2022/02/15 10:03:58;;;;;;;2.47;1.90;;;13.00;53.20;;;;;;5044528;28;20216;-41
2022/02/15 10:06:31;;;;;;;3.53;2.00;;;13.00;53.40;;;;;;5045644;28;20490;-41
2022/02/15 10:09:01;;;;;;;2.33;2.13;;;13.10;52.70;;;;;;5034493;28;20444;-41
2022/02/15 10:11:35;;;;;;;2.10;1.90;;;13.10;52.30;;;;;;5039770;28;20781;-41
2022/02/15 10:14:01;;;;;;;2.23;1.93;;;13.20;52.70;;;;;;5050795;28;20447;-41
2022/02/15 10:16:28;;;;;;;2.50;2.10;;;13.30;52.60;;;;;;5042679;28;20439;-42
2022/02/15 10:18:58;;;;;;;2.40;1.77;;;13.20;52.90;;;;;;5042700;28;20564;-42
2022/02/15 10:21:28;;;;;;;3.03;2.10;;;13.30;52.30;;;;;;5044669;28;20518;-41
2022/02/15 10:23:53;;;;;;;1.77;1.40;;;13.20;52.10;;;;;;5045074;28;20502;-41
2022/02/15 10:26:19;;;;;;;2.43;2.23;;;13.20;51.00;;;;;;5040182;28;20494;-42
2022/02/15 10:28:45;;;;;;;2.50;2.10;;;13.10;51.30;;;;;;5040776;28;20582;-41
2022/02/15 10:31:14;;;;;;;2.63;1.43;;;13.10;51.00;;;;;;5039866;28;20248;-41
2022/02/15 10:33:45;;;;;;;3.50;1.87;;;13.10;50.90;;;;;;5047301;28;20526;-41
2022/02/15 10:36:12;;;;;;;2.03;1.83;;;13.20;51.20;;;;;;5045479;28;20970;-41
2022/02/15 10:38:47;;;;;;;2.00;1.80;;;13.10;51.70;;;;;;5048438;28;20497;-41
2022/02/15 10:41:16;;;;;;;2.77;1.70;;;13.20;51.20;;;;;;5048837;28;20465;-41
2022/02/15 10:43:48;;;;;;;2.50;2.20;;;13.20;51.30;;;;;;5048785;28;20439;-42
2022/02/15 10:46:14;;;;;;;1.60;1.50;;;13.20;50.50;;;;;;5054031;28;20581;-42
2022/02/15 10:48:41;;;;;;;2.67;1.70;;;13.40;50.10;;;;;;5047581;28;20435;-42
2022/02/15 10:51:07;;;;;;;2.63;2.00;;;13.30;49.90;;;;;;5043581;28;20565;-42
2022/02/15 10:53:33;;;;;;;4.23;1.73;;;13.30;49.80;;;;;;5048899;28;20521;-42
2022/02/15 10:55:59;;;;;;;1.80;1.40;;;13.20;49.80;;;;;;5046909;28;20199;-42
2022/02/15 10:58:26;;;;;;;2.77;2.57;;;13.20;49.70;;;;;;5047392;28;20826;-42
2022/02/15 11:00:52;;;;;;;1.83;1.57;;;13.10;49.40;;;;;;5047674;28;20798;-42
2022/02/15 11:03:21;;;;;;;2.63;1.93;;;12.90;48.80;;;;;;5051242;28;20426;-42
2022/02/15 11:05:48;;;;;;;1.00;0.80;;;12.70;48.80;;;;;;5049519;28;20231;-42
2022/02/15 11:08:16;;;;;;;1.27;1.17;;;12.70;48.70;;;;;;5040931;28;20439;-42
2022/02/15 11:10:48;;;;;;;1.50;1.40;;;12.90;49.10;;;;;;5043552;28;20462;-42
2022/02/15 11:13:14;;;;;;;2.27;1.60;;;12.90;48.80;;;;;;5043878;28;21255;-42
2022/02/15 11:15:41;;;;;;;3.83;2.27;;;13.00;48.80;;;;;;5049580;28;20490;-42
2022/02/15 11:18:10;;;;;;;5.50;1.60;;;12.90;48.60;;;;;;5043445;28;20489;-42
2022/02/15 11:20:50;;;;;;;2.90;1.20;;;12.80;48.60;;;;;;5040196;28;21108;-42
2022/02/15 11:23:23;;;;;;;2.13;1.37;;;12.90;48.80;;;;;;5043794;28;20422;-42
2022/02/15 11:26:10;;;;;;;4.40;1.37;;;12.70;48.10;;;;;;5044081;28;20492;-42
2022/02/15 11:28:53;;;;;;;2.20;1.37;;;12.60;48.70;;;;;;5044939;28;20439;-42
2022/02/15 11:31:38;;;;;;;1.73;1.60;;;12.50;48.60;;;;;;5049480;28;20478;-42
2022/02/15 11:34:06;;;;;;;2.33;1.43;;;12.50;48.70;;;;;;5047985;28;20478;-42
2022/02/15 11:36:32;;;;;;;5.03;1.40;;;12.70;49.20;;;;;;5049279;28;20430;-42
2022/02/15 11:39:00;;;;;;;2.53;1.80;;;12.80;49.20;;;;;;5041974;28;20531;-42
2022/02/15 11:41:28;;;;;;;3.70;1.40;;;12.80;50.00;;;;;;5036597;28;20447;-42
2022/02/15 11:44:01;;;;;;;2.20;1.40;;;13.10;50.30;;;;;;5041754;28;20435;-42
2022/02/15 11:46:32;;;;;;;1.50;1.40;;;13.40;50.20;;;;;;5044183;28;20865;-42
2022/02/15 11:49:08;;;;;;;3.60;1.57;;;13.10;48.00;;;;;;5045003;28;20440;-42
2022/02/15 11:51:33;;;;;;;1.53;1.43;;;12.70;48.30;;;;;;5040006;28;20455;-42
2022/02/15 11:54:01;;;;;;;1.43;1.10;;;12.50;49.00;;;;;;5038489;28;20428;-42
2022/02/15 11:56:27;;;;;;;2.33;1.60;;;12.60;49.20;;;;;;5051172;28;20201;-42
2022/02/15 11:58:53;;;;;;;3.13;1.40;;;12.60;49.20;;;;;;5045827;28;20439;-43
2022/02/15 12:01:30;;;;;;;3.40;1.70;;;12.80;49.40;;;;;;5049192;28;20438;-42
2022/02/15 12:03:59;;;;;;;1.70;1.33;;;13.00;48.80;;;;;;5048663;28;20203;-42
2022/02/15 12:06:36;;;;;;;1.70;1.60;;;13.10;48.40;;;;;;5045863;28;20502;-44
2022/02/15 12:09:02;;;;;;;1.80;1.37;;;13.20;48.00;;;;;;5036653;28;20462;-42
2022/02/15 12:11:36;;;;;;;2.40;1.60;;;13.20;47.50;;;;;;5049597;28;20519;-42
2022/02/15 12:14:16;;;;;;;1.93;1.50;;;13.20;47.90;;;;;;5036577;28;20702;-42
2022/02/15 12:16:55;;;;;;;3.47;1.60;;;13.20;47.70;;;;;;5047568;28;20466;-43
2022/02/15 12:19:32;;;;;;;1.93;1.50;;;13.30;47.60;;;;;;5044351;28;20427;-42
2022/02/15 12:22:10;;;;;;;2.80;2.60;;;13.40;47.60;;;;;;5036887;28;20960;-42
2022/02/15 12:24:36;;;;;;;2.23;1.80;;;13.50;47.70;;;;;;5043418;28;20935;-42
2022/02/15 12:27:03;;;;;;;2.23;2.00;;;13.50;47.90;;;;;;5037042;28;20490;-42
2022/02/15 12:29:29;;;;;;;2.87;2.00;;;13.50;48.10;;;;;;5041768;28;20193;-42
2022/02/15 12:31:59;;;;;;;4.53;2.30;;;13.30;48.20;;;;;;5045745;28;20549;-44
2022/02/15 12:34:26;;;;;;;2.33;1.50;;;13.20;48.30;;;;;;5049244;28;20436;-43
2022/02/15 12:36:51;;;;;;;1.80;1.70;;;13.50;48.20;;;;;;5043779;28;20518;-42
2022/02/15 12:39:20;;;;;;;2.10;2.00;;;13.60;47.70;;;;;;5044183;28;21029;-42
2022/02/15 12:41:47;;;;;;;2.33;2.13;;;13.60;47.30;;;;;;5037092;28;20443;-41
2022/02/15 12:44:14;;;;;;;6.20;1.67;;;13.90;47.20;;;;;;5045041;28;20431;-41
2022/02/15 12:46:39;;;;;;;2.40;2.00;;;14.10;46.90;;;;;;5040968;28;20571;-42
2022/02/15 12:49:09;;;;;;;7.10;1.83;;;14.20;46.60;;;;;;5041082;28;20998;-42
2022/02/15 12:51:36;;;;;;;1.77;1.67;;;14.40;46.30;;;;;;5038928;28;20618;-42
2022/02/15 12:54:04;;;;;;;5.20;1.70;;;14.50;45.40;;;;;;5035099;28;20550;-42